Yellow Mule RAWS (NWS)

Elevation
9200ft
Aggregated by Synoptic Data
Date/Time Wind Direction Wind Speed knots Wind Gust knots RH % Accumulated Precip Inches Air Temp Fahrenheit
2024-06-16 16:04 S 11 21 30 5.74 47
2024-06-16 15:04 S 10 23 30 5.74 45
2024-06-16 14:04 S 6 21 27 5.74 45
2024-06-16 13:04 SSW 11 23 29 5.74 42
2024-06-16 12:04 SSW 13 25 29 5.74 40
2024-06-16 11:04 SSW 14 26 24 5.74 39
2024-06-16 10:04 S 13 23 32 5.74 37
2024-06-16 09:04 SSE 10 23 46 5.74 33
2024-06-16 08:04 S 6 22 63 5.74 29
2024-06-16 07:04 SSW 11 18 66 5.74 27
2024-06-16 06:04 SSE 4 13 65 5.74 26
2024-06-16 05:04 SSW 9 15 68 5.74 26
2024-06-16 04:04 SSW 10 16 73 5.74 26
2024-06-16 03:04 SW 11 16 78 5.74 27
2024-06-16 02:04 SSW 7 10 88 5.74 27
2024-06-16 01:04 SSW 7 14 95 5.74 28
2024-06-16 00:04 SSW 5 14 95 5.74 30
2024-06-15 23:04 SW 7 17 94 5.74 33
2024-06-15 22:04 SW 12 17 89 5.74 35
2024-06-15 21:04 SW 10 17 82 5.74 39
2024-06-15 20:04 SSW 10 20 57 5.74 44
2024-06-15 19:04 S 14 37 44 5.74 46
2024-06-15 18:04 S 19 40 34 5.74 48
2024-06-15 17:04 S 23 43 38 5.74 50
2024-06-15 16:04 S 26 43 36 5.74 50
2024-06-15 15:04 S 23 44 38 5.74 52
2024-06-15 14:04 S 24 38 44 5.74 53
2024-06-15 13:04 S 22 44 41 5.74 54
2024-06-15 12:04 S 17 37 46 5.74 55
2024-06-15 11:04 S 14 26 51 5.74 53
2024-06-15 10:04 SE 9 13 64 5.74 54
2024-06-15 09:04 SE 5 9 70 5.74 49
2024-06-15 08:04 S 5 6 82 5.74 44
2024-06-15 07:04 WNW 5 10 83 5.74 42
2024-06-15 06:04 SE 3 11 88 5.74 41
2024-06-15 05:04 SW 10 20 74 5.74 44
2024-06-15 04:04 S 10 23 56 5.74 48
2024-06-15 03:04 S 5 9 63 5.74 47
2024-06-15 02:04 SE 2 4 64 5.74 47
2024-06-15 01:04 WSW 4 10 54 5.74 51
2024-06-15 00:04 SSW 8 13 56 5.74 49
2024-06-14 23:04 S 7 21 56 5.74 49
2024-06-14 22:04 SSE 17 37 57 5.74 50
2024-06-14 21:04 S 6 12 57 5.74 52
2024-06-14 20:04 S 7 14 55 5.74 54
2024-06-14 19:04 SSW 12 24 65 5.74 50
2024-06-14 18:04 W 9 26 56 5.63 52
2024-06-14 17:04 SSW 11 22 34 5.52 61
2024-06-14 16:04 SSE 10 22 37 5.52 62